createdAt,value
2023-03-04T00:02:26.686Z,15.4
2023-03-04T00:04:54.942Z,15.5
2023-03-04T00:07:23.196Z,12.5
2023-03-04T00:09:51.458Z,13.6
2023-03-04T00:11:06.187Z,14.9
2023-03-04T00:12:19.731Z,17.5
2023-03-04T00:14:47.989Z,15.3
2023-03-04T00:17:16.238Z,13.5
2023-03-04T00:19:44.504Z,13.8
2023-03-04T00:22:12.755Z,11.2
2023-03-04T00:24:41.012Z,13.3
2023-03-04T00:29:37.523Z,13.7
2023-03-04T00:32:05.783Z,11.7
2023-03-04T00:34:34.043Z,12.3
2023-03-04T00:35:48.773Z,14.6
2023-03-04T00:37:02.321Z,11
2023-03-04T00:39:30.571Z,13.6
2023-03-04T00:41:58.835Z,11.1
2023-03-04T00:44:27.086Z,13.6
2023-03-04T00:46:55.343Z,14.1
2023-03-04T00:49:23.600Z,12.9
2023-03-04T00:51:51.858Z,9.8
2023-03-04T00:54:20.116Z,12.2
2023-03-04T00:56:48.378Z,13
2023-03-04T01:00:31.367Z,11.4
2023-03-04T01:01:44.911Z,10
2023-03-04T01:04:13.164Z,12.2
2023-03-04T01:06:41.420Z,12.4
2023-03-04T01:09:09.675Z,12.7
2023-03-04T01:11:37.936Z,10.4
2023-03-04T01:14:06.196Z,9.6
2023-03-04T01:16:34.452Z,7.6
2023-03-04T01:19:02.704Z,10.6
2023-03-04T01:21:30.966Z,12.7
2023-03-04T01:23:59.220Z,13.5
2023-03-04T01:25:13.951Z,10.8
2023-03-04T01:26:27.499Z,13.3
2023-03-04T01:31:24.011Z,11.5
2023-03-04T01:33:52.264Z,11.4
2023-03-04T01:36:20.524Z,11.8
2023-03-04T01:38:48.784Z,10
2023-03-04T01:41:17.038Z,12.3
2023-03-04T01:43:45.290Z,13.5
2023-03-04T01:46:13.549Z,12.5
2023-03-04T01:48:41.806Z,13.5
2023-03-04T01:49:56.539Z,15.8
2023-03-04T01:51:10.087Z,10.8
2023-03-04T01:53:38.345Z,11.8
2023-03-04T01:56:06.601Z,12.2
2023-03-04T01:58:34.859Z,11.1
2023-03-04T02:03:31.371Z,11.4
2023-03-04T02:05:59.627Z,12.8
2023-03-04T02:08:27.882Z,9.4
2023-03-04T02:10:56.141Z,14.3
2023-03-04T02:13:24.400Z,11.9
2023-03-04T02:14:39.132Z,14.1
2023-03-04T02:15:52.676Z,12.7
2023-03-04T02:18:20.930Z,12.5
2023-03-04T02:20:49.184Z,13.8
2023-03-04T02:23:17.444Z,12.7
2023-03-04T02:25:45.697Z,15.2
2023-03-04T02:28:13.956Z,13.4
2023-03-04T02:30:42.214Z,11.6
2023-03-04T02:35:38.726Z,11
2023-03-04T02:38:06.978Z,13.2
2023-03-04T02:39:21.713Z,10.8
2023-03-04T02:40:35.260Z,12.4
2023-03-04T02:43:03.525Z,13.4
2023-03-04T02:45:31.777Z,13.7
2023-03-04T02:48:00.029Z,15.9
2023-03-04T02:50:28.291Z,12.6
2023-03-04T02:52:56.542Z,15.1
2023-03-04T02:55:24.798Z,12.8
2023-03-04T02:57:53.058Z,10.9
2023-03-04T03:00:21.316Z,14.5
2023-03-04T03:02:49.574Z,12.4
2023-03-04T03:05:17.826Z,14.5
2023-03-04T03:07:46.081Z,11.9
2023-03-04T03:10:14.339Z,14.3
2023-03-04T03:12:42.601Z,9.1
2023-03-04T03:15:10.855Z,14.1
2023-03-04T03:17:39.110Z,14.3
2023-03-04T03:20:07.371Z,14.2
2023-03-04T03:22:35.623Z,16.5
2023-03-04T03:25:03.879Z,15.5
2023-03-04T03:27:32.137Z,13.2
2023-03-04T03:28:46.892Z,14.6
2023-03-04T03:30:00.435Z,12.4
2023-03-04T03:32:28.692Z,12.2
2023-03-04T03:37:25.208Z,14.9
2023-03-04T03:39:53.459Z,15.5
2023-03-04T03:42:21.720Z,11.4
2023-03-04T03:44:49.980Z,12.6
2023-03-04T03:47:18.230Z,9.7
2023-03-04T03:49:46.490Z,13.6
2023-03-04T03:52:14.748Z,16
2023-03-04T03:53:29.478Z,9.1
2023-03-04T03:54:43.019Z,13.6
2023-03-04T03:57:11.278Z,13.3
2023-03-04T03:59:39.537Z,13.6
2023-03-04T04:02:07.793Z,17.7
2023-03-04T04:04:36.048Z,14.4
2023-03-04T04:09:32.565Z,11.9
2023-03-04T04:12:00.824Z,13.9
2023-03-04T04:14:29.074Z,14.2
2023-03-04T04:16:57.334Z,15.3
2023-03-04T04:18:12.062Z,16.5
2023-03-04T04:19:25.607Z,14.9
2023-03-04T04:21:53.866Z,14.9
2023-03-04T04:24:22.118Z,15.6
2023-03-04T04:26:50.378Z,12.5
2023-03-04T04:29:18.632Z,15.1
2023-03-04T04:31:46.891Z,15.7
2023-03-04T04:34:15.152Z,15.2
2023-03-04T04:36:43.410Z,16.7
2023-03-04T04:41:39.918Z,18.3
2023-03-04T04:42:54.651Z,20.5
2023-03-04T04:44:08.199Z,19.9
2023-03-04T04:46:36.453Z,25.7
2023-03-04T04:49:04.713Z,22.5
2023-03-04T04:51:32.970Z,24.3
2023-03-04T04:54:01.219Z,23
2023-03-04T04:56:29.484Z,22.8
2023-03-04T04:58:57.741Z,22.5
2023-03-04T05:01:25.998Z,23.9
2023-03-04T05:03:54.252Z,24.2
2023-03-04T05:06:22.507Z,27.3
2023-03-04T05:07:37.238Z,27.1
2023-03-04T05:11:19.269Z,25
2023-03-04T05:13:47.532Z,29.3
2023-03-04T05:16:15.789Z,30
2023-03-04T05:18:44.042Z,33.5
2023-03-04T05:21:12.300Z,27.2
2023-03-04T05:23:40.558Z,33.2
2023-03-04T05:26:08.816Z,28.3
2023-03-04T05:28:37.071Z,27.7
2023-03-04T05:31:05.324Z,29
2023-03-04T05:32:20.068Z,33.2
2023-03-04T05:33:33.606Z,24.1
2023-03-04T05:36:01.863Z,27.2
2023-03-04T05:38:30.116Z,28.6
2023-03-04T05:43:26.630Z,27.1
2023-03-04T05:45:54.888Z,27.8
2023-03-04T05:48:23.139Z,29.9
2023-03-04T05:50:51.400Z,29.9
2023-03-04T05:53:19.655Z,26.4
2023-03-04T05:55:47.909Z,34.2
2023-03-04T05:57:02.651Z,30.4
2023-03-04T05:58:16.190Z,27.9
2023-03-04T06:00:44.450Z,33.5
2023-03-04T06:03:12.707Z,35.7
2023-03-04T06:05:40.962Z,28
2023-03-04T06:08:09.222Z,28.6
2023-03-04T06:10:37.476Z,26.2
2023-03-04T06:15:33.985Z,25.9
2023-03-04T06:18:02.248Z,24.1
2023-03-04T06:20:30.502Z,28.8
2023-03-04T06:21:45.229Z,26.3
2023-03-04T06:22:58.782Z,27.1
2023-03-04T06:25:27.031Z,22.7
2023-03-04T06:27:55.289Z,24.1
2023-03-04T06:30:23.545Z,23
2023-03-04T06:32:51.804Z,22.8
2023-03-04T06:35:20.062Z,22.2
2023-03-04T06:37:48.314Z,23.2
2023-03-04T06:40:16.571Z,25
2023-03-04T06:42:44.831Z,22.7
2023-03-04T06:46:27.820Z,25.4
2023-03-04T06:47:41.362Z,19.5
2023-03-04T06:50:09.622Z,20.4
2023-03-04T06:52:37.880Z,19.9
2023-03-04T06:55:06.131Z,22.3
2023-03-04T06:57:34.390Z,23
2023-03-04T07:00:02.643Z,24.1
2023-03-04T07:02:30.900Z,18.1
2023-03-04T07:04:59.157Z,22.3
2023-03-04T07:07:27.418Z,27.5
2023-03-04T07:09:55.670Z,24
2023-03-04T07:11:10.412Z,28
2023-03-04T07:12:23.954Z,25.9
2023-03-04T07:17:20.467Z,25.4
2023-03-04T07:19:48.720Z,31.3
2023-03-04T07:22:16.979Z,25.9
2023-03-04T07:24:45.237Z,24.7
2023-03-04T07:27:13.489Z,26.5
2023-03-04T07:29:41.745Z,36.2
2023-03-04T07:32:10.010Z,25.6
2023-03-04T07:34:38.260Z,22.2
2023-03-04T07:35:52.992Z,27.7
2023-03-04T07:37:06.538Z,25.3
2023-03-04T07:39:34.791Z,29.6
2023-03-04T07:42:03.048Z,30.9
2023-03-04T07:44:31.307Z,25.7
2023-03-04T07:49:27.822Z,29.3
2023-03-04T07:51:56.083Z,28.7
2023-03-04T07:54:24.334Z,27.7
2023-03-04T07:56:52.595Z,29.2
2023-03-04T07:59:20.848Z,32
2023-03-04T08:00:35.583Z,28.3
2023-03-04T08:01:49.132Z,29
2023-03-04T08:04:17.380Z,31.3
2023-03-04T08:06:45.638Z,30.2
2023-03-04T08:09:13.902Z,30.3
2023-03-04T08:11:42.157Z,28.3
2023-03-04T08:14:10.410Z,29
2023-03-04T08:16:38.672Z,30.8
2023-03-04T08:21:35.185Z,31.6
2023-03-04T08:24:03.443Z,30.8
2023-03-04T08:25:18.171Z,30.3
2023-03-04T08:26:31.719Z,29.1
2023-03-04T08:28:59.968Z,28.8
2023-03-04T08:31:28.232Z,26.9
2023-03-04T08:33:56.482Z,29.7
2023-03-04T08:36:24.746Z,33.3
2023-03-04T08:38:52.998Z,33.9
2023-03-04T08:41:21.256Z,33.2
2023-03-04T08:43:49.516Z,28.6
2023-03-04T08:46:17.765Z,33.9
2023-03-04T08:48:46.026Z,39.3
2023-03-04T08:51:14.283Z,36.2
2023-03-04T08:53:42.540Z,39.8
2023-03-04T08:56:10.802Z,35.5
2023-03-04T08:58:39.055Z,34.2
2023-03-04T09:01:07.309Z,30
2023-03-04T09:03:35.565Z,31.3
2023-03-04T09:06:03.827Z,31.3
2023-03-04T09:08:32.086Z,35.3
2023-03-04T09:11:00.341Z,30.5
2023-03-04T09:13:28.599Z,28.2
2023-03-04T09:14:43.350Z,30.6
2023-03-04T09:15:56.891Z,30.7
2023-03-04T09:18:25.152Z,27.4
2023-03-04T09:23:21.656Z,32.6
2023-03-04T09:25:49.914Z,32.4
2023-03-04T09:28:18.171Z,32.5
2023-03-04T09:30:46.435Z,31.8
2023-03-04T09:33:14.689Z,31.6
2023-03-04T09:35:42.948Z,27.2
2023-03-04T09:38:11.204Z,26
2023-03-04T09:39:25.934Z,32.3
2023-03-04T09:40:39.479Z,26.5
2023-03-04T09:43:07.737Z,28.9
2023-03-04T09:45:35.994Z,32.4
2023-03-04T09:48:04.249Z,28.1
2023-03-04T09:50:32.503Z,29.6
2023-03-04T09:55:29.021Z,29.1
2023-03-04T09:57:57.270Z,27.8
2023-03-04T10:00:25.530Z,31.6
2023-03-04T10:02:53.790Z,30.6
2023-03-04T10:04:08.519Z,30.8
2023-03-04T10:05:22.060Z,31.5
2023-03-04T10:07:50.320Z,24.7
2023-03-04T10:10:18.573Z,26.8
2023-03-04T10:12:46.834Z,26.7
2023-03-04T10:15:15.093Z,30
2023-03-04T10:17:43.349Z,29.6
2023-03-04T10:20:11.608Z,33.9
2023-03-04T10:22:39.857Z,26.9
2023-03-04T10:27:36.374Z,29
2023-03-04T10:28:51.102Z,33.6
2023-03-04T10:30:04.649Z,29.9
2023-03-04T10:32:32.907Z,31.5
2023-03-04T10:35:01.165Z,30.9
2023-03-04T10:37:29.423Z,36.6
2023-03-04T10:39:57.681Z,31.1
2023-03-04T10:42:25.936Z,29.5
2023-03-04T10:44:54.187Z,28.7
2023-03-04T10:47:22.452Z,31.9
2023-03-04T10:49:50.708Z,32.8
2023-03-04T10:52:18.957Z,30.2
2023-03-04T10:53:33.697Z,26.7
2023-03-04T10:57:15.731Z,24.6
2023-03-04T10:59:43.983Z,24.5
2023-03-04T11:02:12.237Z,24
2023-03-04T11:04:40.496Z,30.8
2023-03-04T11:07:08.756Z,25
2023-03-04T11:09:37.012Z,21.7
2023-03-04T11:12:05.270Z,32
2023-03-04T11:14:33.526Z,24.5
2023-03-04T11:17:01.782Z,25.2
2023-03-04T11:18:16.516Z,22.4
2023-03-04T11:19:30.059Z,24.7
2023-03-04T11:21:58.322Z,22.1
2023-03-04T11:24:26.571Z,22.8
2023-03-04T11:29:23.092Z,26.5
2023-03-04T11:31:51.347Z,24.8
2023-03-04T11:34:19.605Z,22
2023-03-04T11:36:47.861Z,23.8
2023-03-04T11:39:16.116Z,25
2023-03-04T11:41:44.376Z,25.6
2023-03-04T11:42:59.112Z,22.3
2023-03-04T11:44:12.648Z,22.4
2023-03-04T11:46:40.906Z,23.4
2023-03-04T11:49:09.164Z,23.4
2023-03-04T11:51:37.424Z,25.1
2023-03-04T11:54:05.685Z,26.1
2023-03-04T11:56:33.939Z,21.8
2023-03-04T12:01:30.452Z,19.8
2023-03-04T12:03:58.713Z,24.8
2023-03-04T12:06:26.971Z,22.2
2023-03-04T12:07:41.702Z,20.7
2023-03-04T12:08:55.241Z,20.5
2023-03-04T12:11:23.502Z,24.4
2023-03-04T12:13:51.760Z,25.5
2023-03-04T12:16:20.020Z,25.4
2023-03-04T12:18:48.278Z,21.6
2023-03-04T12:21:16.530Z,19.8
2023-03-04T12:23:44.784Z,17.9
2023-03-04T12:26:13.045Z,21.6
2023-03-04T12:28:41.299Z,19.9
2023-03-04T12:32:24.298Z,17.9
2023-03-04T12:33:37.840Z,24
2023-03-04T12:36:06.090Z,24
2023-03-04T12:38:34.348Z,23.6
2023-03-04T12:41:02.610Z,22
2023-03-04T12:43:30.868Z,21.7
2023-03-04T12:45:59.123Z,25.6
2023-03-04T12:48:27.379Z,18.3
2023-03-04T12:50:55.641Z,24.1
2023-03-04T12:53:23.895Z,15.2
2023-03-04T12:55:52.151Z,20.9
2023-03-04T12:57:06.889Z,16.3
2023-03-04T12:58:20.431Z,19.6
2023-03-04T13:03:16.943Z,21.3
2023-03-04T13:05:45.195Z,20.4
2023-03-04T13:08:13.455Z,26.8
2023-03-04T13:10:41.718Z,18
2023-03-04T13:13:09.967Z,19.5
2023-03-04T13:15:38.229Z,19.8
2023-03-04T13:18:06.486Z,19.1
2023-03-04T13:20:34.740Z,22.6
2023-03-04T13:21:49.474Z,20.9
2023-03-04T13:23:03.016Z,18
2023-03-04T13:25:31.272Z,19.4
2023-03-04T13:27:59.531Z,21.1
2023-03-04T13:30:27.788Z,27.7
2023-03-04T13:35:24.302Z,19.4
2023-03-04T13:37:52.566Z,23.6
2023-03-04T13:40:20.818Z,20.8
2023-03-04T13:42:49.075Z,22.2
2023-03-04T13:45:17.338Z,21.4
2023-03-04T13:46:32.068Z,21
2023-03-04T13:47:45.609Z,19.9
2023-03-04T13:50:13.869Z,19.1
2023-03-04T13:52:42.125Z,18.8
2023-03-04T13:55:10.385Z,22.7
2023-03-04T13:57:38.640Z,24.4
2023-03-04T14:00:06.895Z,19.8
2023-03-04T14:02:35.153Z,23.8
2023-03-04T14:07:31.671Z,21.2
2023-03-04T14:09:59.923Z,23.5
2023-03-04T14:11:14.660Z,18.8
2023-03-04T14:12:28.201Z,19.7
2023-03-04T14:14:56.463Z,17.7
2023-03-04T14:17:24.719Z,19.7
2023-03-04T14:19:52.970Z,21.2
2023-03-04T14:22:21.235Z,19
2023-03-04T14:24:49.490Z,23.5
2023-03-04T14:27:17.749Z,19.7
2023-03-04T14:29:46.001Z,19.8
2023-03-04T14:32:14.274Z,23.6
2023-03-04T14:34:42.520Z,19.6
2023-03-04T14:37:10.774Z,21.8
2023-03-04T14:39:39.031Z,18.6
2023-03-04T14:42:07.293Z,16.1
2023-03-04T14:44:35.546Z,14.6
2023-03-04T14:47:03.805Z,19.3
2023-03-04T14:49:32.063Z,18.6
2023-03-04T14:52:00.324Z,17.7
2023-03-04T14:54:28.576Z,18.5
2023-03-04T14:56:56.832Z,20.8
2023-03-04T14:59:25.091Z,18.2
2023-03-04T15:00:39.844Z,19.4
2023-03-04T15:01:53.386Z,16.6
2023-03-04T15:04:21.649Z,16.1
2023-03-04T15:09:18.160Z,16.3
2023-03-04T15:11:46.412Z,17.8
2023-03-04T15:14:14.675Z,17.9
2023-03-04T15:16:42.935Z,15.4
2023-03-04T15:19:11.185Z,19.9
2023-03-04T15:21:39.443Z,19.4
2023-03-04T15:24:07.698Z,17.6
2023-03-04T15:25:22.436Z,16.5
2023-03-04T15:26:35.975Z,14.9
2023-03-04T15:29:04.234Z,17
2023-03-04T15:31:32.499Z,17.4
2023-03-04T15:34:00.751Z,18.4
2023-03-04T15:36:29.010Z,20.2
2023-03-04T15:41:25.520Z,17
2023-03-04T15:43:53.778Z,17.9
2023-03-04T15:46:22.033Z,20.8
2023-03-04T15:48:50.298Z,18.1
2023-03-04T15:50:05.032Z,13.6
2023-03-04T15:51:18.575Z,17.1
2023-03-04T15:53:46.830Z,17.8
2023-03-04T15:56:15.088Z,16.4
2023-03-04T15:58:43.342Z,16.3
2023-03-04T16:01:11.600Z,17.6
2023-03-04T16:03:39.859Z,18.2
2023-03-04T16:06:08.113Z,20.9
2023-03-04T16:08:36.371Z,14.1
2023-03-04T16:13:32.882Z,19.3
2023-03-04T16:14:47.613Z,15.5
2023-03-04T16:16:01.162Z,13.8
2023-03-04T16:18:29.422Z,18.2
2023-03-04T16:20:57.672Z,16.7
2023-03-04T16:23:25.928Z,16
2023-03-04T16:25:54.187Z,17.9
2023-03-04T16:28:22.443Z,17.8
2023-03-04T16:30:50.701Z,14
2023-03-04T16:33:18.960Z,17.3
2023-03-04T16:35:47.222Z,16.7
2023-03-04T16:38:15.469Z,19.1
2023-03-04T16:39:30.209Z,16.3
2023-03-04T16:43:12.238Z,16.4
2023-03-04T16:45:40.497Z,16.4
2023-03-04T16:48:08.755Z,13.7
2023-03-04T16:50:37.009Z,16.9
2023-03-04T16:53:05.268Z,18.1
2023-03-04T16:55:33.528Z,12.2
2023-03-04T16:58:01.778Z,12.4
2023-03-04T17:00:30.040Z,17.5
2023-03-04T17:02:58.292Z,13.6
2023-03-04T17:04:13.032Z,12.8
2023-03-04T17:05:26.575Z,14
2023-03-04T17:07:54.829Z,18.7
2023-03-04T17:10:23.087Z,14.4
2023-03-04T17:15:19.597Z,13
2023-03-04T17:17:47.855Z,14.6
2023-03-04T17:20:16.119Z,12.6
2023-03-04T17:22:44.373Z,15.7
2023-03-04T17:25:12.631Z,17.5
2023-03-04T17:27:40.883Z,13.1
2023-03-04T17:28:55.615Z,13.7
2023-03-04T17:30:09.161Z,16.3
2023-03-04T17:32:37.421Z,17.1
2023-03-04T17:35:05.673Z,15.2
2023-03-04T17:37:33.930Z,19.4
2023-03-04T17:40:02.193Z,18.3
2023-03-04T17:42:30.446Z,15.1
2023-03-04T17:47:26.965Z,11.2
2023-03-04T17:49:55.214Z,14.4
2023-03-04T17:52:23.472Z,14.5
2023-03-04T17:53:38.207Z,15
2023-03-04T17:54:51.753Z,11.4
2023-03-04T17:57:20.012Z,10.9
2023-03-04T17:59:48.264Z,13.7
2023-03-04T18:02:16.530Z,12.1
2023-03-04T18:04:44.786Z,14.9
2023-03-04T18:07:13.039Z,12.4
2023-03-04T18:09:41.295Z,14.3
2023-03-04T18:12:09.552Z,12.8
2023-03-04T18:14:37.812Z,12.7
2023-03-04T18:18:20.805Z,15.4
2023-03-04T18:19:34.344Z,15.4
2023-03-04T18:22:02.601Z,15.1
2023-03-04T18:24:30.855Z,14.5
2023-03-04T18:26:59.115Z,12.5
2023-03-04T18:29:27.370Z,13.3
2023-03-04T18:31:55.630Z,15.7
2023-03-04T18:34:23.884Z,13
2023-03-04T18:36:52.140Z,13.4
2023-03-04T18:39:20.399Z,15.9
2023-03-04T18:41:48.662Z,13.3
2023-03-04T18:43:03.395Z,11.5
2023-03-04T18:44:16.941Z,12.9
2023-03-04T18:49:13.455Z,13.5
2023-03-04T18:51:41.708Z,10
2023-03-04T18:54:09.967Z,12.5
2023-03-04T18:56:38.221Z,15.7
2023-03-04T18:59:06.481Z,16.8
2023-03-04T19:01:34.736Z,12.8
2023-03-04T19:04:02.998Z,12.7
2023-03-04T19:06:31.257Z,14
2023-03-04T19:07:45.991Z,11.6
2023-03-04T19:08:59.536Z,11.4
2023-03-04T19:11:27.791Z,11
2023-03-04T19:13:56.047Z,13.8
2023-03-04T19:16:24.305Z,12.1
2023-03-04T19:21:20.814Z,13.2
2023-03-04T19:23:49.077Z,12.8
2023-03-04T19:26:17.333Z,13.9
2023-03-04T19:28:45.588Z,12.1
2023-03-04T19:31:13.851Z,14.6
2023-03-04T19:32:28.577Z,14.6
2023-03-04T19:33:42.123Z,11.8
2023-03-04T19:36:10.382Z,10.8
2023-03-04T19:38:38.636Z,14
2023-03-04T19:41:06.892Z,13.4
2023-03-04T19:43:35.154Z,12
2023-03-04T19:46:03.409Z,13.8
2023-03-04T19:48:31.665Z,12.4
2023-03-04T19:53:28.187Z,12.8
2023-03-04T19:55:56.441Z,11.4
2023-03-04T19:57:11.170Z,8.7
2023-03-04T19:58:24.721Z,11.6
2023-03-04T20:00:52.976Z,16.4
2023-03-04T20:03:21.227Z,11.1
2023-03-04T20:05:49.490Z,11.2
2023-03-04T20:08:17.796Z,10.4
2023-03-04T20:10:46.004Z,10.4
2023-03-04T20:13:14.258Z,9.8
2023-03-04T20:15:42.522Z,11.3
2023-03-04T20:18:10.785Z,11.3
2023-03-04T20:20:39.028Z,10.4
2023-03-04T20:23:07.293Z,7.9
2023-03-04T20:25:35.544Z,13.4
2023-03-04T20:28:03.801Z,14.5
2023-03-04T20:30:32.064Z,13.3
2023-03-04T20:33:00.319Z,16
2023-03-04T20:35:28.579Z,10
2023-03-04T20:37:56.838Z,13
2023-03-04T20:40:25.089Z,11.2
2023-03-04T20:42:53.347Z,10.6
2023-03-04T20:45:21.600Z,10.2
2023-03-04T20:46:36.351Z,9
2023-03-04T20:47:49.903Z,11.4
2023-03-04T20:50:18.160Z,12.2
2023-03-04T20:55:14.674Z,7.9
2023-03-04T20:57:42.930Z,11.1
2023-03-04T21:00:11.186Z,13.1
2023-03-04T21:02:39.446Z,11.5
2023-03-04T21:05:07.706Z,9.6
2023-03-04T21:07:35.956Z,11.7
2023-03-04T21:10:04.217Z,12.9
2023-03-04T21:11:18.950Z,11.9
2023-03-04T21:12:32.497Z,11.5
2023-03-04T21:15:00.749Z,9.5
2023-03-04T21:17:29.012Z,10.2
2023-03-04T21:19:57.263Z,9.8
2023-03-04T21:22:25.517Z,10.8
2023-03-04T21:27:22.032Z,11.2
2023-03-04T21:29:50.297Z,13.1
2023-03-04T21:32:18.560Z,9.7
2023-03-04T21:34:46.807Z,11.7
2023-03-04T21:36:01.541Z,11.3
2023-03-04T21:39:43.341Z,12.5
2023-03-04T21:42:11.598Z,11.9
2023-03-04T21:44:39.851Z,10.3
2023-03-04T21:47:08.115Z,12
2023-03-04T21:49:36.369Z,11.5
2023-03-04T21:52:04.632Z,11.2
2023-03-04T21:54:32.882Z,10.3
2023-03-04T21:59:29.399Z,11.8
2023-03-04T22:00:44.133Z,13
2023-03-04T22:01:57.681Z,13.4
2023-03-04T22:04:25.931Z,11.5
2023-03-04T22:06:54.195Z,16.3
2023-03-04T22:09:22.449Z,12.6
2023-03-04T22:11:50.709Z,12.4
2023-03-04T22:14:18.961Z,13.1
2023-03-04T22:16:47.223Z,15.1
2023-03-04T22:19:15.476Z,14.6
2023-03-04T22:21:43.732Z,11.6
2023-03-04T22:24:11.998Z,11.4
2023-03-04T22:25:26.726Z,12.5
2023-03-04T22:29:08.755Z,11
2023-03-04T22:31:37.021Z,14.1
2023-03-04T22:34:05.275Z,11.3
2023-03-04T22:36:33.529Z,10.7
2023-03-04T22:39:01.791Z,10.6
2023-03-04T22:41:30.048Z,11
2023-03-04T22:43:58.307Z,8.3
2023-03-04T22:46:26.563Z,12.7
2023-03-04T22:48:54.819Z,10.9
2023-03-04T22:50:09.555Z,11
2023-03-04T22:51:23.099Z,8.4
2023-03-04T22:53:51.349Z,12.3
2023-03-04T22:56:19.609Z,9.9
2023-03-04T23:01:16.123Z,10.2
2023-03-04T23:03:44.379Z,8.3
2023-03-04T23:06:12.639Z,11.7
2023-03-04T23:08:40.890Z,7.6
2023-03-04T23:11:09.148Z,9.8
2023-03-04T23:13:37.418Z,12.6
2023-03-04T23:14:52.141Z,9.9
2023-03-04T23:16:05.681Z,13.8
2023-03-04T23:18:33.942Z,10
2023-03-04T23:21:02.202Z,10.4
2023-03-04T23:23:30.455Z,11.7
2023-03-04T23:25:58.712Z,11
2023-03-04T23:28:26.968Z,9.6
2023-03-04T23:33:23.481Z,13.6
2023-03-04T23:35:51.739Z,7.7
2023-03-04T23:38:19.997Z,12
2023-03-04T23:39:34.729Z,10.7
2023-03-04T23:40:48.281Z,10.3
2023-03-04T23:43:16.536Z,11.5
2023-03-04T23:45:44.791Z,11.6
2023-03-04T23:48:13.047Z,10.5
2023-03-04T23:50:41.307Z,9.4
2023-03-04T23:53:09.559Z,11.3
2023-03-04T23:55:37.819Z,13.1
2023-03-04T23:58:06.079Z,10.9
